Forsyth, Illinois
Current Conditions -  °F | °C
As of 11:20 PM on Wednesday 26 Nov 2014 (Local Time) from KDEC Reporting Station
Overcast Overcast  
Wind Chill: -9°   Ceiling: 5000
Heat Index: -3°   Visibility: 7mi
Dew Point: -5°   Wind: 12mph
Humidity: 85%   Direction: 20°NNE
Pressure: 30.19"   Gusts: NA
Location:  39.93°N, 88.95°W
Report Text: KDEC 270520Z AUTO 02010KT 7SM SCT011 OVC050 M03/M05 A3019 RMK AO2 SNE10 P0000 T10281050 TSNO
Loading
Personal Weather Stations






























Interactive Weather Map New forecast layout! Learn more

10-Day Weather Forecast

Advertisements
Track Severe Weather on mobile